Time;durP1;ratioP1;P1;durP2;ratioP2;P2;SDS_P1;SDS_P2;PMS_P1;PMS_P2;Temp;Humidity;BMP_temperature;BMP_pressure;BME280_temperature;BME280_humidity;BME280_pressure;Samples;Min_cycle;Max_cycle;Signal;HPM_P1;HPM_P2
2020/12/06 00:01:39;;;;;;;83.73;39.07;;;4.50;99.90;;;;;;5292728;28;20219;-74
2020/12/06 00:04:11;;;;;;;79.17;38.00;;;4.50;99.90;;;;;;5292277;28;20191;-71
2020/12/06 00:06:43;;;;;;;78.43;37.50;;;4.50;99.90;;;;;;5292381;28;20183;-72
2020/12/06 00:09:16;;;;;;;77.27;38.13;;;4.50;99.90;;;;;;5292697;28;20649;-76
2020/12/06 00:11:47;;;;;;;82.77;38.90;;;4.60;99.90;;;;;;5292585;28;20237;-71
2020/12/06 00:14:19;;;;;;;92.23;40.23;;;4.60;99.90;;;;;;5292791;28;20545;-71
2020/12/06 00:16:50;;;;;;;84.97;38.17;;;4.60;99.90;;;;;;5291738;28;20188;-73
2020/12/06 00:19:22;;;;;;;84.63;37.97;;;4.60;99.90;;;;;;5292273;28;20202;-74
2020/12/06 00:21:53;;;;;;;79.77;37.47;;;4.60;99.90;;;;;;5292515;28;20226;-72
2020/12/06 00:28:21;;;;;;;78.10;35.53;;;4.60;99.90;;;;;;5254258;28;20316;-76
2020/12/06 00:30:52;;;;;;;83.47;37.90;;;4.60;99.90;;;;;;5250275;28;20197;-75
2020/12/06 00:33:24;;;;;;;82.53;38.57;;;4.50;99.90;;;;;;5250254;28;20204;-74
2020/12/06 00:35:55;;;;;;;83.87;39.23;;;4.50;99.90;;;;;;5250561;28;20535;-75
2020/12/06 00:38:27;;;;;;;80.30;39.43;;;4.50;99.90;;;;;;5250547;28;20213;-76
2020/12/06 00:44:54;;;;;;;85.93;36.97;;;4.50;99.90;;;;;;5250169;28;20183;-77
2020/12/06 00:47:26;;;;;;;82.33;38.67;;;4.50;99.90;;;;;;5250425;28;20526;-75
2020/12/06 00:49:57;;;;;;;87.67;39.40;;;4.50;99.90;;;;;;5232213;28;20193;-71
2020/12/06 00:52:29;;;;;;;83.93;39.10;;;4.50;99.90;;;;;;5250253;28;20224;-76
2020/12/06 00:55:01;;;;;;;78.93;38.40;;;4.50;99.90;;;;;;5250059;28;20548;-71
2020/12/06 00:57:33;;;;;;;80.83;38.40;;;4.50;99.90;;;;;;5250033;28;20554;-72
2020/12/06 01:00:09;;;;;;;84.00;38.53;;;4.50;99.90;;;;;;5250112;28;20661;-71
2020/12/06 01:02:40;;;;;;;83.77;38.87;;;4.50;99.90;;;;;;5249684;28;20228;-70
2020/12/06 01:05:12;;;;;;;89.40;40.53;;;4.50;99.90;;;;;;5249984;28;20546;-70
2020/12/06 01:07:44;;;;;;;79.43;37.10;;;4.50;99.90;;;;;;5249803;28;20200;-70
2020/12/06 01:10:16;;;;;;;84.60;39.20;;;4.50;99.90;;;;;;5250279;28;20544;-71
2020/12/06 01:12:47;;;;;;;88.70;38.70;;;4.50;99.90;;;;;;5249753;28;20197;-68
2020/12/06 01:15:19;;;;;;;84.27;39.10;;;4.60;99.90;;;;;;5249442;28;20199;-69
2020/12/06 01:17:51;;;;;;;77.27;38.20;;;4.60;99.90;;;;;;5249554;28;20192;-70
2020/12/06 01:20:23;;;;;;;82.80;38.47;;;4.60;99.90;;;;;;5249621;28;20196;-70
2020/12/06 01:22:55;;;;;;;85.73;38.70;;;4.60;99.90;;;;;;5248974;28;20220;-76
2020/12/06 01:25:26;;;;;;;90.23;39.73;;;4.60;99.90;;;;;;5249136;28;20189;-69
2020/12/06 01:27:58;;;;;;;83.37;39.03;;;4.70;99.90;;;;;;5261174;28;20250;-69
2020/12/06 01:30:29;;;;;;;86.47;40.07;;;4.70;99.90;;;;;;5270044;28;20197;-70
2020/12/06 01:33:00;;;;;;;90.30;39.63;;;4.70;99.90;;;;;;5270251;28;20184;-69
2020/12/06 01:35:32;;;;;;;89.63;38.27;;;4.70;99.90;;;;;;5270120;28;20196;-70
2020/12/06 01:38:03;;;;;;;83.77;37.73;;;4.70;99.90;;;;;;5269896;28;20188;-70
2020/12/06 01:40:40;;;;;;;84.13;38.17;;;4.80;99.90;;;;;;5269558;28;20189;-69
2020/12/06 01:43:11;;;;;;;84.20;37.00;;;4.70;99.90;;;;;;5269935;28;20648;-69
2020/12/06 01:45:43;;;;;;;85.77;38.40;;;4.80;99.90;;;;;;5269792;28;20279;-70
2020/12/06 01:48:15;;;;;;;85.33;38.07;;;4.80;99.90;;;;;;5269797;28;20196;-69
2020/12/06 01:50:46;;;;;;;85.73;40.00;;;4.80;99.90;;;;;;5270054;28;20192;-76
2020/12/06 01:53:18;;;;;;;89.03;40.23;;;4.80;99.90;;;;;;5270131;28;20199;-70
2020/12/06 01:55:52;;;;;;;95.07;42.43;;;4.80;99.90;;;;;;5269385;28;20196;-69
2020/12/06 01:58:25;;;;;;;90.57;41.87;;;4.90;99.90;;;;;;5269769;28;20196;-69
2020/12/06 02:00:57;;;;;;;87.20;39.10;;;4.90;99.90;;;;;;5269409;28;20204;-70
2020/12/06 02:03:28;;;;;;;92.97;39.87;;;4.90;99.90;;;;;;5269271;28;20206;-70
2020/12/06 02:06:00;;;;;;;83.27;39.63;;;4.90;99.90;;;;;;5251343;28;20192;-69
2020/12/06 02:08:32;;;;;;;85.27;40.27;;;4.90;99.90;;;;;;5269270;28;20199;-69
2020/12/06 02:11:04;;;;;;;86.23;39.33;;;4.90;99.90;;;;;;5269503;28;20188;-70
2020/12/06 02:13:35;;;;;;;80.83;38.93;;;4.90;99.90;;;;;;5269341;28;20203;-71
2020/12/06 02:16:07;;;;;;;84.87;38.03;;;4.90;99.90;;;;;;5269666;28;20211;-69
2020/12/06 02:18:38;;;;;;;84.50;38.83;;;4.90;99.90;;;;;;5269652;28;20200;-70
2020/12/06 02:21:09;;;;;;;88.70;39.50;;;4.90;99.90;;;;;;5269143;28;20200;-70
2020/12/06 02:23:41;;;;;;;91.70;42.27;;;4.90;99.90;;;;;;5269187;28;20207;-69
2020/12/06 02:26:12;;;;;;;88.93;40.23;;;4.90;99.90;;;;;;5269407;28;20195;-69
2020/12/06 02:28:43;;;;;;;83.63;39.87;;;5.00;99.90;;;;;;5269511;28;20228;-68
2020/12/06 02:31:15;;;;;;;84.73;38.77;;;4.90;99.90;;;;;;5269776;28;20195;-70
2020/12/06 02:33:47;;;;;;;88.97;39.20;;;4.90;99.90;;;;;;5269451;28;20196;-69
2020/12/06 02:36:18;;;;;;;79.20;38.83;;;4.90;99.90;;;;;;5268989;28;20647;-69
2020/12/06 02:38:50;;;;;;;88.60;39.00;;;4.90;99.90;;;;;;5269143;28;20658;-70
2020/12/06 02:41:22;;;;;;;81.77;38.90;;;4.90;99.90;;;;;;5268312;28;20595;-74
2020/12/06 02:43:53;;;;;;;86.47;38.73;;;4.90;99.90;;;;;;5268982;28;20192;-70
2020/12/06 02:46:25;;;;;;;81.90;38.63;;;4.80;99.90;;;;;;5269033;28;20195;-70
2020/12/06 02:48:56;;;;;;;81.23;38.07;;;4.80;99.90;;;;;;5269062;28;20192;-70
2020/12/06 02:51:28;;;;;;;82.57;39.40;;;4.80;99.90;;;;;;5268827;28;20240;-69
2020/12/06 02:54:00;;;;;;;83.40;38.90;;;4.80;99.90;;;;;;5269168;28;20661;-69
2020/12/06 02:56:32;;;;;;;86.13;37.80;;;4.80;99.90;;;;;;5269058;28;20214;-69
2020/12/06 02:59:03;;;;;;;84.40;38.40;;;4.80;99.90;;;;;;5269048;28;20196;-69
2020/12/06 03:01:34;;;;;;;88.67;39.13;;;4.80;99.90;;;;;;5268485;28;20212;-70
2020/12/06 03:04:06;;;;;;;85.57;39.63;;;4.80;99.90;;;;;;5268911;28;20188;-69
2020/12/06 03:06:37;;;;;;;90.13;42.37;;;4.80;99.90;;;;;;5269041;28;20547;-70
2020/12/06 03:09:09;;;;;;;88.60;41.17;;;4.80;99.90;;;;;;5268610;28;20192;-69
2020/12/06 03:11:40;;;;;;;84.17;39.53;;;4.80;99.90;;;;;;5268613;28;20226;-70
2020/12/06 03:14:12;;;;;;;87.53;39.87;;;4.80;99.90;;;;;;5268886;28;20188;-69
2020/12/06 03:16:43;;;;;;;85.07;38.97;;;4.80;99.90;;;;;;5268569;28;20196;-75
2020/12/06 03:19:15;;;;;;;87.63;39.80;;;4.80;99.90;;;;;;5269048;28;20184;-70
2020/12/06 03:21:46;;;;;;;85.13;39.23;;;4.80;99.90;;;;;;5269078;28;20224;-74
2020/12/06 03:24:17;;;;;;;83.83;38.30;;;4.80;99.90;;;;;;5268831;28;20203;-73
2020/12/06 03:26:49;;;;;;;83.93;39.77;;;4.80;99.90;;;;;;5269000;28;20236;-74
2020/12/06 03:29:20;;;;;;;87.90;38.20;;;4.80;99.90;;;;;;5269633;28;20655;-74
2020/12/06 03:31:51;;;;;;;83.87;38.10;;;4.80;99.90;;;;;;5268909;28;20203;-75
2020/12/06 03:34:23;;;;;;;92.53;40.73;;;4.80;99.90;;;;;;5269825;28;20635;-75
2020/12/06 03:36:54;;;;;;;85.67;38.57;;;4.90;99.90;;;;;;5269472;28;20548;-75
2020/12/06 03:39:26;;;;;;;89.53;38.93;;;4.90;99.90;;;;;;5268532;28;20662;-74
2020/12/06 03:41:57;;;;;;;91.53;39.63;;;4.90;99.90;;;;;;5268512;28;20224;-75
2020/12/06 03:44:29;;;;;;;86.80;40.20;;;4.90;99.90;;;;;;5268720;28;20288;-71
2020/12/06 03:47:00;;;;;;;90.93;38.93;;;4.90;99.90;;;;;;5268655;28;20538;-70
2020/12/06 03:49:32;;;;;;;87.07;39.43;;;4.90;99.90;;;;;;5268640;28;20191;-70
2020/12/06 03:52:04;;;;;;;83.43;39.23;;;5.00;99.90;;;;;;5270129;28;20228;-70
2020/12/06 03:54:35;;;;;;;80.70;37.70;;;5.00;99.90;;;;;;5272206;28;20546;-69
2020/12/06 03:57:07;;;;;;;80.90;38.50;;;5.00;99.90;;;;;;5272025;28;20193;-69
2020/12/06 03:59:38;;;;;;;82.97;38.43;;;5.00;99.90;;;;;;5272425;28;20697;-70
2020/12/06 04:02:09;;;;;;;87.73;39.47;;;5.00;99.90;;;;;;5253823;28;20216;-68
2020/12/06 04:04:42;;;;;;;86.60;40.23;;;5.00;99.90;;;;;;5272251;28;20534;-68
2020/12/06 04:07:13;;;;;;;78.77;38.83;;;5.00;99.90;;;;;;5271797;28;20643;-69
2020/12/06 04:09:44;;;;;;;81.90;38.77;;;5.10;99.90;;;;;;5253991;28;20199;-69
2020/12/06 04:12:16;;;;;;;80.17;39.23;;;5.10;99.90;;;;;;5271889;28;20219;-69
2020/12/06 04:14:47;;;;;;;77.87;39.37;;;5.10;99.90;;;;;;5271654;28;20199;-69
2020/12/06 04:17:19;;;;;;;79.20;38.87;;;5.10;99.90;;;;;;5271489;28;20203;-70
2020/12/06 04:19:50;;;;;;;80.13;39.90;;;5.10;99.90;;;;;;5271555;28;20204;-70
2020/12/06 04:22:21;;;;;;;79.60;40.17;;;5.10;99.90;;;;;;5271228;28;20235;-70
2020/12/06 04:24:53;;;;;;;79.00;39.20;;;5.10;99.90;;;;;;5271416;28;20195;-69
2020/12/06 04:27:24;;;;;;;83.07;41.63;;;5.10;99.90;;;;;;5270358;28;20236;-69
2020/12/06 04:29:56;;;;;;;81.90;40.63;;;5.10;99.90;;;;;;5271232;28;20193;-70
2020/12/06 04:32:27;;;;;;;77.37;39.53;;;5.10;99.90;;;;;;5271064;28;20192;-69
2020/12/06 04:34:59;;;;;;;81.60;39.97;;;5.10;99.90;;;;;;5270988;28;20192;-69
2020/12/06 04:37:31;;;;;;;78.53;38.77;;;5.10;99.90;;;;;;5271291;28;20556;-72
2020/12/06 04:40:04;;;;;;;80.73;39.67;;;5.10;99.90;;;;;;5271506;28;20188;-75
2020/12/06 04:42:36;;;;;;;84.00;41.60;;;5.10;99.90;;;;;;5270928;28;20220;-75
2020/12/06 04:45:08;;;;;;;74.40;38.97;;;5.10;99.90;;;;;;5271856;28;20199;-76
2020/12/06 04:47:54;;;;;;;74.27;39.27;;;5.10;99.90;;;;;;5272932;28;20203;-76
2020/12/06 04:50:34;;;;;;;83.37;38.97;;;5.10;99.90;;;;;;5272218;28;20188;-76
2020/12/06 04:53:06;;;;;;;82.70;40.03;;;5.10;99.90;;;;;;5252848;28;20203;-75
2020/12/06 04:55:37;;;;;;;82.93;40.83;;;5.10;99.90;;;;;;5270808;28;20195;-73
2020/12/06 04:58:23;;;;;;;80.10;40.33;;;5.10;99.90;;;;;;5270598;28;20204;-74
2020/12/06 05:00:54;;;;;;;82.23;40.97;;;5.10;99.90;;;;;;5270674;28;20213;-74
2020/12/06 05:03:27;;;;;;;77.67;39.63;;;5.10;99.90;;;;;;5270508;28;20220;-74
2020/12/06 05:05:58;;;;;;;78.27;40.20;;;5.10;99.90;;;;;;5270688;28;20362;-70
2020/12/06 05:08:33;;;;;;;75.43;39.50;;;5.10;99.90;;;;;;5271082;28;20237;-70
2020/12/06 05:15:00;;;;;;;79.30;38.90;;;5.10;99.90;;;;;;5271297;28;20234;-76
2020/12/06 05:17:32;;;;;;;76.03;39.60;;;5.20;99.90;;;;;;5270878;28;20215;-75
2020/12/06 05:20:10;;;;;;;83.63;41.53;;;5.10;99.90;;;;;;5270536;28;20199;-70
2020/12/06 05:22:47;;;;;;;80.37;40.03;;;5.20;99.90;;;;;;5270431;28;20212;-70
2020/12/06 05:25:19;;;;;;;82.27;41.07;;;5.20;99.90;;;;;;5270646;28;20586;-70
2020/12/06 05:32:28;;;;;;;76.80;38.83;;;5.20;99.90;;;;;;5249980;28;20187;-70
2020/12/06 05:35:00;;;;;;;79.10;40.20;;;5.20;99.90;;;;;;5248959;28;20189;-70
2020/12/06 05:37:34;;;;;;;76.43;38.67;;;5.20;99.90;;;;;;5249074;28;20235;-70
2020/12/06 05:40:07;;;;;;;79.50;39.53;;;5.20;99.90;;;;;;5249122;28;20203;-70
2020/12/06 05:46:26;;;;;;;70.17;38.30;;;5.30;99.90;;;;;;5248951;28;20191;-70
2020/12/06 05:48:57;;;;;;;78.37;39.40;;;5.30;99.90;;;;;;5248706;28;20203;-67
2020/12/06 05:51:29;;;;;;;75.07;41.30;;;5.30;99.90;;;;;;5248715;28;20550;-67
2020/12/06 05:54:00;;;;;;;80.17;41.47;;;5.40;99.90;;;;;;5248675;28;20211;-68
2020/12/06 05:56:35;;;;;;;75.07;39.93;;;5.40;99.90;;;;;;5264040;28;20200;-68
2020/12/06 05:59:07;;;;;;;76.53;40.43;;;5.40;99.90;;;;;;5248842;28;20200;-68
2020/12/06 06:01:39;;;;;;;78.07;39.93;;;5.40;99.90;;;;;;5248375;28;20703;-67
2020/12/06 06:04:11;;;;;;;73.60;39.63;;;5.40;99.90;;;;;;5248541;28;20197;-67
2020/12/06 06:06:45;;;;;;;77.00;40.50;;;5.50;99.90;;;;;;5248203;28;20246;-67
2020/12/06 06:09:19;;;;;;;77.50;40.63;;;5.50;99.90;;;;;;5230106;28;20193;-68
2020/12/06 06:12:17;;;;;;;72.97;40.03;;;5.50;99.90;;;;;;5248333;28;20185;-68
2020/12/06 06:14:49;;;;;;;78.10;40.43;;;5.50;99.90;;;;;;5247459;28;20201;-68
2020/12/06 06:17:22;;;;;;;78.67;40.37;;;5.60;99.90;;;;;;5248317;28;20189;-69
2020/12/06 06:19:54;;;;;;;75.20;40.43;;;5.60;99.90;;;;;;5248350;28;20193;-68
2020/12/06 06:22:55;;;;;;;68.87;37.60;;;5.60;99.90;;;;;;5243265;28;20221;-66
2020/12/06 06:25:28;;;;;;;70.53;38.77;;;5.60;99.90;;;;;;5183968;28;20209;-69
2020/12/06 06:27:59;;;;;;;73.57;39.23;;;5.70;99.90;;;;;;5184031;28;20202;-69
2020/12/06 06:30:31;;;;;;;70.13;38.70;;;5.70;99.90;;;;;;5189398;28;20280;-69
2020/12/06 06:33:13;;;;;;;74.37;39.33;;;5.70;99.90;;;;;;5204801;28;20225;-67
2020/12/06 06:35:46;;;;;;;73.33;39.63;;;5.80;99.90;;;;;;5204489;28;20557;-69
2020/12/06 06:38:18;;;;;;;75.47;38.97;;;5.80;99.90;;;;;;5204656;28;20276;-69
2020/12/06 06:40:50;;;;;;;71.70;39.53;;;5.80;99.90;;;;;;5203869;28;20202;-69
2020/12/06 06:43:27;;;;;;;71.10;37.37;;;5.90;99.90;;;;;;5204200;28;20234;-68
2020/12/06 06:46:09;;;;;;;72.57;39.13;;;5.90;99.90;;;;;;5204723;28;20196;-69
2020/12/06 06:48:45;;;;;;;72.20;38.43;;;5.90;99.90;;;;;;5204709;28;20632;-68
2020/12/06 06:51:21;;;;;;;70.97;38.67;;;5.90;99.90;;;;;;5204387;28;20193;-66
2020/12/06 06:54:02;;;;;;;70.27;37.37;;;5.90;99.90;;;;;;5204418;28;20209;-68
2020/12/06 07:00:29;;;;;;;74.33;38.57;;;6.00;99.90;;;;;;5204662;28;20662;-66
2020/12/06 07:03:01;;;;;;;70.40;38.63;;;6.10;99.90;;;;;;5268332;28;20716;-67
2020/12/06 07:05:37;;;;;;;73.13;38.80;;;6.00;99.90;;;;;;5268808;28;20192;-66
2020/12/06 07:08:11;;;;;;;67.73;38.77;;;6.10;99.90;;;;;;5268604;28;20646;-68
2020/12/06 07:10:43;;;;;;;65.40;36.77;;;6.10;99.90;;;;;;5268892;28;20207;-67
2020/12/06 07:17:00;;;;;;;69.53;37.00;;;6.10;99.90;;;;;;5268508;28;20202;-69
2020/12/06 07:19:31;;;;;;;69.50;37.93;;;6.10;99.90;;;;;;5268483;28;20193;-72
2020/12/06 07:22:04;;;;;;;65.70;37.80;;;6.10;99.90;;;;;;5269610;28;20212;-67
2020/12/06 07:24:35;;;;;;;67.40;37.20;;;6.20;99.90;;;;;;5269932;28;20215;-68
2020/12/06 07:27:08;;;;;;;64.10;36.50;;;6.20;99.90;;;;;;5270575;28;20188;-67
2020/12/06 07:29:41;;;;;;;64.83;38.40;;;6.20;99.90;;;;;;5273087;28;20203;-72
2020/12/06 07:32:13;;;;;;;63.97;36.90;;;6.20;99.90;;;;;;5251363;28;20243;-70
2020/12/06 07:34:44;;;;;;;67.43;36.10;;;6.20;99.90;;;;;;5255235;28;20627;-69
2020/12/06 07:37:16;;;;;;;62.60;35.87;;;6.30;99.90;;;;;;5255247;28;20198;-71
2020/12/06 07:39:49;;;;;;;63.77;37.13;;;6.30;99.90;;;;;;5272703;28;20204;-70
2020/12/06 07:42:26;;;;;;;65.23;36.83;;;6.30;99.90;;;;;;5272624;28;20220;-70
2020/12/06 07:44:59;;;;;;;60.13;36.20;;;6.30;99.90;;;;;;5272211;28;20526;-70
2020/12/06 07:47:31;;;;;;;63.73;35.70;;;6.30;99.90;;;;;;5272342;28;20605;-69
2020/12/06 07:50:05;;;;;;;62.40;35.47;;;6.30;99.90;;;;;;5271695;28;20188;-70
2020/12/06 07:52:40;;;;;;;63.33;35.87;;;6.30;99.90;;;;;;5271802;28;20201;-72
2020/12/06 07:55:12;;;;;;;56.63;34.00;;;6.40;99.90;;;;;;5271715;28;20188;-71
2020/12/06 07:57:53;;;;;;;62.87;35.27;;;6.40;99.90;;;;;;5272086;28;20196;-71
2020/12/06 08:00:39;;;;;;;61.63;34.97;;;6.40;99.90;;;;;;5271976;28;20211;-71
2020/12/06 08:03:13;;;;;;;61.47;35.00;;;6.40;99.90;;;;;;5271676;28;20212;-71
2020/12/06 08:05:45;;;;;;;64.00;34.87;;;6.40;99.90;;;;;;5271752;28;20211;-70
2020/12/06 08:08:21;;;;;;;62.00;34.70;;;6.40;99.90;;;;;;5271405;28;20192;-71
2020/12/06 08:10:56;;;;;;;63.00;35.17;;;6.50;99.90;;;;;;5253702;28;20188;-71
2020/12/06 08:13:29;;;;;;;60.80;34.37;;;6.40;99.90;;;;;;5271503;28;20200;-71
2020/12/06 08:16:06;;;;;;;62.60;37.27;;;6.50;99.90;;;;;;5272049;28;20197;-71
2020/12/06 08:18:37;;;;;;;59.67;34.60;;;6.50;99.90;;;;;;5271827;28;20199;-71
2020/12/06 08:21:09;;;;;;;58.53;34.13;;;6.50;99.90;;;;;;5271244;28;20231;-69
2020/12/06 08:23:40;;;;;;;65.27;36.40;;;6.50;99.90;;;;;;5271299;28;20223;-71
2020/12/06 08:26:11;;;;;;;56.23;34.43;;;6.50;99.90;;;;;;5271164;28;20195;-71
2020/12/06 08:28:50;;;;;;;60.17;35.10;;;6.50;99.90;;;;;;5270281;28;20203;-70
2020/12/06 08:31:23;;;;;;;60.43;35.13;;;6.50;99.90;;;;;;5252472;28;20694;-69
2020/12/06 08:34:16;;;;;;;56.30;33.90;;;6.50;99.90;;;;;;5270328;28;20203;-70
2020/12/06 08:36:47;;;;;;;59.77;34.60;;;6.50;99.90;;;;;;5270724;28;20200;-69
2020/12/06 08:39:20;;;;;;;59.70;33.47;;;6.60;99.90;;;;;;5269670;28;20555;-68
2020/12/06 08:41:52;;;;;;;58.23;32.97;;;6.60;99.90;;;;;;5270872;28;20199;-69
2020/12/06 08:44:23;;;;;;;58.30;33.50;;;6.60;99.90;;;;;;5251813;28;20196;-68
2020/12/06 08:46:55;;;;;;;57.53;32.67;;;6.50;99.90;;;;;;5270809;28;20204;-69
2020/12/06 08:49:26;;;;;;;58.20;32.87;;;6.60;99.90;;;;;;5269737;28;20283;-70
2020/12/06 08:51:58;;;;;;;57.27;32.73;;;6.60;99.90;;;;;;5270084;28;20199;-68
2020/12/06 08:54:34;;;;;;;55.07;33.63;;;6.60;99.90;;;;;;5271001;28;20653;-69
2020/12/06 09:00:38;;;;;;;52.10;30.33;;;6.60;99.90;;;;;;5185041;28;20195;-73
2020/12/06 09:03:09;;;;;;;54.10;31.50;;;6.60;99.90;;;;;;5185804;28;20246;-71
2020/12/06 09:05:45;;;;;;;51.63;31.00;;;6.50;99.90;;;;;;5184896;28;20187;-73
2020/12/06 09:08:16;;;;;;;56.20;31.60;;;6.50;99.90;;;;;;5184527;28;20218;-74
2020/12/06 09:10:48;;;;;;;50.97;32.50;;;6.60;99.90;;;;;;5185571;28;20201;-73
2020/12/06 09:17:04;;;;;;;51.27;30.00;;;6.60;99.90;;;;;;5185614;28;20210;-75
2020/12/06 09:19:36;;;;;;;55.23;32.50;;;6.60;99.90;;;;;;5184922;28;20207;-74
2020/12/06 09:22:07;;;;;;;52.23;30.40;;;6.60;99.90;;;;;;5185238;28;20222;-69
2020/12/06 09:24:39;;;;;;;51.07;31.67;;;6.60;99.90;;;;;;5184514;28;20214;-68
2020/12/06 09:27:10;;;;;;;51.97;28.63;;;6.60;99.90;;;;;;5185490;28;20197;-69
2020/12/06 09:34:04;;;;;;;51.13;28.30;;;6.60;99.90;;;;;;5269533;28;20223;-71
2020/12/06 09:36:44;;;;;;;50.67;29.50;;;6.60;99.90;;;;;;5270027;28;20628;-74
2020/12/06 09:39:15;;;;;;;52.33;30.40;;;6.60;99.90;;;;;;5270455;28;20308;-70
2020/12/06 09:41:47;;;;;;;45.57;28.60;;;6.60;99.90;;;;;;5269236;28;20192;-74
2020/12/06 09:48:04;;;;;;;50.37;29.37;;;6.70;99.90;;;;;;5268677;28;20186;-70
2020/12/06 09:50:36;;;;;;;47.37;28.33;;;6.70;99.90;;;;;;5268556;28;20204;-70
2020/12/06 09:53:08;;;;;;;47.60;28.17;;;6.70;99.90;;;;;;5268724;28;20195;-68
2020/12/06 09:55:40;;;;;;;46.87;28.33;;;6.70;99.90;;;;;;5268982;28;20570;-69
2020/12/06 09:58:11;;;;;;;51.13;29.87;;;6.70;99.90;;;;;;5269198;28;20188;-70
2020/12/06 10:00:45;;;;;;;49.33;29.27;;;6.70;99.90;;;;;;5269407;28;20297;-68
2020/12/06 10:03:16;;;;;;;45.77;27.67;;;6.70;99.90;;;;;;5268768;28;20232;-73
2020/12/06 10:05:48;;;;;;;47.07;28.73;;;6.70;99.90;;;;;;5269112;28;20192;-69
2020/12/06 10:08:19;;;;;;;46.83;28.80;;;6.70;99.90;;;;;;5269758;28;20196;-72
2020/12/06 10:10:51;;;;;;;44.27;28.07;;;6.70;99.90;;;;;;5268602;28;20192;-68
2020/12/06 10:13:22;;;;;;;49.90;29.93;;;6.70;99.90;;;;;;5269150;28;20184;-69
2020/12/06 10:15:53;;;;;;;46.43;27.33;;;6.70;99.90;;;;;;5268485;28;20211;-70
2020/12/06 10:18:25;;;;;;;48.23;28.23;;;6.70;99.90;;;;;;5269023;28;20195;-74
2020/12/06 10:20:56;;;;;;;46.67;27.63;;;6.80;99.90;;;;;;5268085;28;20548;-73
2020/12/06 10:23:28;;;;;;;46.27;27.33;;;6.70;99.90;;;;;;5268044;28;20256;-74
2020/12/06 10:26:00;;;;;;;42.23;26.77;;;6.80;99.90;;;;;;5268241;28;20274;-72
2020/12/06 10:28:32;;;;;;;44.17;26.67;;;6.70;99.90;;;;;;5266528;28;20199;-73
2020/12/06 10:31:03;;;;;;;43.20;26.40;;;6.70;99.90;;;;;;5268834;28;20275;-75
2020/12/06 10:33:35;;;;;;;47.07;26.90;;;6.70;99.90;;;;;;5267619;28;20239;-73
2020/12/06 10:36:06;;;;;;;40.13;25.20;;;6.70;99.90;;;;;;5267144;28;20561;-75
2020/12/06 10:38:37;;;;;;;42.20;25.87;;;6.70;99.90;;;;;;5268564;28;20192;-76
2020/12/06 10:41:12;;;;;;;41.30;25.90;;;6.70;99.90;;;;;;5267509;28;20196;-72
2020/12/06 10:43:43;;;;;;;39.67;25.60;;;6.70;99.90;;;;;;5268206;28;20215;-73
2020/12/06 10:46:15;;;;;;;40.10;25.83;;;6.70;99.90;;;;;;5267539;28;20610;-71
2020/12/06 10:48:46;;;;;;;44.27;27.07;;;6.70;99.90;;;;;;5268744;28;20207;-75
2020/12/06 10:51:18;;;;;;;40.47;24.93;;;6.80;99.90;;;;;;5250757;28;20261;-75
2020/12/06 10:53:49;;;;;;;40.83;25.40;;;6.80;99.90;;;;;;5269224;28;20200;-74
2020/12/06 10:56:21;;;;;;;41.30;24.87;;;6.80;99.90;;;;;;5250424;28;20549;-74
2020/12/06 10:58:53;;;;;;;38.40;24.60;;;6.80;99.90;;;;;;5268867;28;20588;-74
2020/12/06 11:01:26;;;;;;;39.27;24.53;;;6.70;99.90;;;;;;5270865;28;20189;-75
2020/12/06 11:03:59;;;;;;;40.53;24.77;;;6.70;99.90;;;;;;5274366;28;20528;-72
2020/12/06 11:06:34;;;;;;;41.63;25.67;;;6.70;99.90;;;;;;5273242;28;20628;-74
2020/12/06 11:09:06;;;;;;;39.13;24.23;;;6.70;99.90;;;;;;5273803;28;20242;-76
2020/12/06 11:11:40;;;;;;;39.07;23.77;;;6.70;99.90;;;;;;5276084;28;20196;-78
2020/12/06 11:14:11;;;;;;;39.60;24.17;;;6.70;99.90;;;;;;5276186;28;20202;-77
2020/12/06 11:16:43;;;;;;;37.90;24.50;;;6.60;99.90;;;;;;5259350;28;20185;-76
2020/12/06 11:19:14;;;;;;;41.57;25.67;;;6.70;99.90;;;;;;5275024;28;20192;-77
2020/12/06 11:21:46;;;;;;;40.33;24.37;;;6.70;99.90;;;;;;5257787;28;20614;-76
2020/12/06 11:24:19;;;;;;;40.80;24.43;;;6.70;99.90;;;;;;5274590;28;20228;-74
2020/12/06 11:26:51;;;;;;;39.10;24.20;;;6.70;99.90;;;;;;5276240;28;20202;-76
2020/12/06 11:29:23;;;;;;;43.00;24.90;;;6.70;99.90;;;;;;5274174;28;20215;-75
2020/12/06 11:31:55;;;;;;;41.00;25.10;;;6.70;99.90;;;;;;5273981;28;20188;-75
2020/12/06 11:34:29;;;;;;;41.70;25.33;;;6.70;99.90;;;;;;5274647;28;20275;-76
2020/12/06 11:37:01;;;;;;;40.97;24.50;;;6.70;99.90;;;;;;5272166;28;20200;-75
2020/12/06 11:39:32;;;;;;;42.43;25.63;;;6.70;99.90;;;;;;5274128;28;20193;-74
2020/12/06 11:42:04;;;;;;;37.20;24.07;;;6.70;99.90;;;;;;5272428;28;20627;-76
2020/12/06 11:44:36;;;;;;;38.40;24.10;;;6.60;99.90;;;;;;5271480;28;20192;-73
2020/12/06 11:47:07;;;;;;;38.20;24.23;;;6.70;99.90;;;;;;5273196;28;20192;-75
2020/12/06 11:49:39;;;;;;;38.30;23.07;;;6.60;99.90;;;;;;5272411;28;20192;-69
2020/12/06 11:52:10;;;;;;;34.63;22.17;;;6.60;99.90;;;;;;5252745;28;20203;-70
2020/12/06 11:54:42;;;;;;;41.43;24.10;;;6.60;99.90;;;;;;5271131;28;20555;-71
2020/12/06 11:57:13;;;;;;;36.77;21.93;;;6.60;99.90;;;;;;5271250;28;20525;-69
2020/12/06 11:59:46;;;;;;;35.73;22.13;;;6.50;99.90;;;;;;5272339;28;20531;-71
2020/12/06 12:02:18;;;;;;;36.53;22.23;;;6.50;99.90;;;;;;5265153;28;20208;-71
2020/12/06 12:04:50;;;;;;;35.53;22.37;;;6.50;99.90;;;;;;5268143;28;20706;-70
2020/12/06 12:07:22;;;;;;;35.97;22.53;;;6.50;99.90;;;;;;5267016;28;20188;-75
2020/12/06 12:09:55;;;;;;;36.77;22.30;;;6.50;99.90;;;;;;5250410;28;20215;-75
2020/12/06 12:12:26;;;;;;;33.33;20.87;;;6.40;99.90;;;;;;5267614;28;20192;-72
2020/12/06 12:14:57;;;;;;;34.30;21.37;;;6.40;99.90;;;;;;5268610;28;20189;-72
2020/12/06 12:17:29;;;;;;;34.77;21.70;;;6.40;99.90;;;;;;5266746;28;20196;-77
2020/12/06 12:20:03;;;;;;;35.63;21.83;;;6.40;99.90;;;;;;5270840;28;20189;-74
2020/12/06 12:22:34;;;;;;;31.50;20.13;;;6.40;99.90;;;;;;5269129;28;20219;-74
2020/12/06 12:25:06;;;;;;;37.30;23.27;;;6.40;99.90;;;;;;5270179;28;20196;-73
2020/12/06 12:27:37;;;;;;;38.53;23.63;;;6.40;99.90;;;;;;5271450;28;20188;-76
2020/12/06 12:30:10;;;;;;;34.50;21.63;;;6.40;99.90;;;;;;5251979;28;20197;-74
2020/12/06 12:32:41;;;;;;;33.33;20.80;;;6.40;99.90;;;;;;5269249;28;20256;-71
2020/12/06 12:35:13;;;;;;;35.67;21.47;;;6.40;99.90;;;;;;5268600;28;20193;-76
2020/12/06 12:37:44;;;;;;;33.10;21.93;;;6.40;99.90;;;;;;5268414;28;20646;-74
2020/12/06 12:40:15;;;;;;;35.37;22.03;;;6.30;99.90;;;;;;5270790;28;20208;-73
2020/12/06 12:42:47;;;;;;;36.07;22.60;;;6.40;99.90;;;;;;5270136;28;20220;-75
2020/12/06 12:45:19;;;;;;;33.80;21.57;;;6.30;99.90;;;;;;5270043;28;20543;-73
2020/12/06 12:47:52;;;;;;;31.73;20.50;;;6.30;99.90;;;;;;5271982;28;20218;-76
2020/12/06 12:50:25;;;;;;;34.33;20.40;;;6.30;99.90;;;;;;5272460;28;20192;-73
2020/12/06 12:52:56;;;;;;;36.37;22.23;;;6.30;99.90;;;;;;5273200;28;20189;-75
2020/12/06 12:55:28;;;;;;;35.50;22.47;;;6.30;99.90;;;;;;5271080;28;20216;-76
2020/12/06 12:58:02;;;;;;;36.90;22.20;;;6.30;99.90;;;;;;5253267;28;20196;-73
2020/12/06 13:00:34;;;;;;;29.57;19.80;;;6.30;99.90;;;;;;5270450;28;20193;-74
2020/12/06 13:03:08;;;;;;;34.07;20.93;;;6.20;99.90;;;;;;5271138;28;20601;-74
2020/12/06 13:05:40;;;;;;;34.27;21.07;;;6.20;99.90;;;;;;5270724;28;20192;-74
2020/12/06 13:08:12;;;;;;;34.40;21.13;;;6.20;99.90;;;;;;5270263;28;20200;-73
2020/12/06 13:10:43;;;;;;;39.37;22.30;;;6.20;99.90;;;;;;5271904;28;20188;-74
2020/12/06 13:13:15;;;;;;;33.47;20.60;;;6.20;99.90;;;;;;5271710;28;20188;-73
2020/12/06 13:15:47;;;;;;;33.37;21.43;;;6.10;99.90;;;;;;5272190;28;20516;-74
2020/12/06 13:18:19;;;;;;;35.53;21.63;;;6.10;99.90;;;;;;5269896;28;20206;-70
2020/12/06 13:20:50;;;;;;;35.57;22.87;;;6.10;99.90;;;;;;5270293;28;20211;-70
2020/12/06 13:23:24;;;;;;;36.30;21.80;;;6.10;99.90;;;;;;5269765;28;20231;-73
2020/12/06 13:25:55;;;;;;;34.50;21.00;;;6.10;99.90;;;;;;5268729;28;20193;-71
2020/12/06 13:28:26;;;;;;;36.00;22.00;;;6.00;99.90;;;;;;5268339;28;20211;-70
2020/12/06 13:30:58;;;;;;;35.97;22.10;;;6.00;99.90;;;;;;5269061;28;20219;-75
2020/12/06 13:33:29;;;;;;;32.67;20.90;;;6.00;99.90;;;;;;5268817;28;20769;-71
2020/12/06 13:36:01;;;;;;;33.20;20.37;;;6.00;99.90;;;;;;5269572;28;20192;-72
2020/12/06 13:38:33;;;;;;;33.80;21.40;;;6.00;99.90;;;;;;5270256;28;20215;-71
2020/12/06 13:41:04;;;;;;;35.07;21.57;;;5.90;99.90;;;;;;5268532;28;20212;-73
2020/12/06 13:43:36;;;;;;;34.77;21.63;;;5.90;99.90;;;;;;5270167;28;20216;-72
2020/12/06 13:46:08;;;;;;;35.43;21.17;;;5.90;99.90;;;;;;5269948;28;20258;-71